sensor_id;sensor_type;location;lat;lon;timestamp;pressure;altitude;pressure_sealevel;temperature;humidity
30081;BME280;16902;50.816;12.828;2023-02-10T00:00:15;99388.88;;;-4.29;100.00
30081;BME280;16902;50.816;12.828;2023-02-10T00:05:17;99382.13;;;-4.30;100.00
30081;BME280;16902;50.816;12.828;2023-02-10T00:10:19;99393.44;;;-4.40;100.00
30081;BME280;16902;50.816;12.828;2023-02-10T00:15:21;99386.84;;;-4.46;100.00
30081;BME280;16902;50.816;12.828;2023-02-10T00:20:22;99383.44;;;-4.45;100.00
30081;BME280;16902;50.816;12.828;2023-02-10T00:25:24;99386.88;;;-4.47;100.00
30081;BME280;16902;50.816;12.828;2023-02-10T00:30:26;99388.59;;;-4.48;100.00
30081;BME280;16902;50.816;12.828;2023-02-10T00:35:28;99390.31;;;-4.48;100.00
30081;BME280;16902;50.816;12.828;2023-02-10T00:40:30;99407.31;;;-4.50;100.00
30081;BME280;16902;50.816;12.828;2023-02-10T00:45:32;99422.03;;;-4.61;100.00
30081;BME280;16902;50.816;12.828;2023-02-10T00:50:34;99415.25;;;-4.61;100.00
30081;BME280;16902;50.816;12.828;2023-02-10T00:55:36;99423.13;;;-4.70;100.00
30081;BME280;16902;50.816;12.828;2023-02-10T01:00:38;99418.03;;;-4.69;100.00
30081;BME280;16902;50.816;12.828;2023-02-10T01:05:42;99417.09;;;-4.66;100.00
30081;BME280;16902;50.816;12.828;2023-02-10T01:10:45;99415.81;;;-4.51;100.00
30081;BME280;16902;50.816;12.828;2023-02-10T01:15:47;99429.53;;;-4.57;100.00
30081;BME280;16902;50.816;12.828;2023-02-10T01:20:49;99437.47;;;-4.68;100.00
30081;BME280;16902;50.816;12.828;2023-02-10T01:25:51;99440.91;;;-4.70;100.00
30081;BME280;16902;50.816;12.828;2023-02-10T01:30:53;99438.47;;;-4.73;100.00
30081;BME280;16902;50.816;12.828;2023-02-10T01:35:55;99435.97;;;-4.75;100.00
30081;BME280;16902;50.816;12.828;2023-02-10T01:40:57;99433.47;;;-4.76;100.00
30081;BME280;16902;50.816;12.828;2023-02-10T01:46:00;99429.34;;;-4.80;100.00
30081;BME280;16902;50.816;12.828;2023-02-10T01:51:05;99434.56;;;-4.85;100.00
30081;BME280;16902;50.816;12.828;2023-02-10T01:56:10;99436.34;;;-4.88;100.00
30081;BME280;16902;50.816;12.828;2023-02-10T02:01:13;99444.09;;;-4.93;100.00
30081;BME280;16902;50.816;12.828;2023-02-10T02:06:15;99442.41;;;-4.94;100.00
30081;BME280;16902;50.816;12.828;2023-02-10T02:22:15;99436.63;;;-5.32;100.00
30081;BME280;16902;50.816;12.828;2023-02-10T02:33:39;99434.56;;;-5.16;100.00
30081;BME280;16902;50.816;12.828;2023-02-10T02:38:40;99446.56;;;-5.23;100.00
30081;BME280;16902;50.816;12.828;2023-02-10T02:43:42;99448.19;;;-5.20;100.00
30081;BME280;16902;50.816;12.828;2023-02-10T02:48:53;99436.72;;;-5.02;100.00
30081;BME280;16902;50.816;12.828;2023-02-10T02:59:42;99447.13;;;-5.11;100.00
30081;BME280;16902;50.816;12.828;2023-02-10T03:04:47;99446.66;;;-4.95;100.00
30081;BME280;16902;50.816;12.828;2023-02-10T03:09:50;99442.09;;;-4.82;100.00
30081;BME280;16902;50.816;12.828;2023-02-10T03:14:52;99434.78;;;-4.63;100.00
30081;BME280;16902;50.816;12.828;2023-02-10T03:19:53;99443.81;;;-4.53;100.00
30081;BME280;16902;50.816;12.828;2023-02-10T03:24:55;99449.03;;;-4.57;100.00
30081;BME280;16902;50.816;12.828;2023-02-10T03:29:57;99446.88;;;-4.42;100.00
30081;BME280;16902;50.816;12.828;2023-02-10T03:34:59;99444.84;;;-4.30;100.00
30081;BME280;16902;50.816;12.828;2023-02-10T03:40:01;99448.31;;;-4.33;100.00
30081;BME280;16902;50.816;12.828;2023-02-10T03:45:04;99452.72;;;-4.38;100.00
30081;BME280;16902;50.816;12.828;2023-02-10T03:50:06;99455.25;;;-4.38;100.00
30081;BME280;16902;50.816;12.828;2023-02-10T03:55:08;99451.47;;;-4.25;100.00
30081;BME280;16902;50.816;12.828;2023-02-10T04:00:11;99455.31;;;-4.11;100.00
30081;BME280;16902;50.816;12.828;2023-02-10T04:05:13;99455.56;;;-3.93;100.00
30081;BME280;16902;50.816;12.828;2023-02-10T04:10:15;99448.19;;;-3.74;100.00
30081;BME280;16902;50.816;12.828;2023-02-10T04:15:17;99464.59;;;-3.56;100.00
30081;BME280;16902;50.816;12.828;2023-02-10T04:20:19;99472.50;;;-3.39;100.00
30081;BME280;16902;50.816;12.828;2023-02-10T04:25:21;99476.47;;;-3.30;100.00
30081;BME280;16902;50.816;12.828;2023-02-10T04:30:23;99483.66;;;-3.16;100.00
30081;BME280;16902;50.816;12.828;2023-02-10T04:35:25;99490.38;;;-3.14;100.00
30081;BME280;16902;50.816;12.828;2023-02-10T04:40:27;99503.44;;;-2.98;100.00
30081;BME280;16902;50.816;12.828;2023-02-10T04:45:29;99494.38;;;-2.81;100.00
30081;BME280;16902;50.816;12.828;2023-02-10T04:50:31;99494.53;;;-2.86;100.00
30081;BME280;16902;50.816;12.828;2023-02-10T04:55:34;99506.59;;;-2.91;100.00
30081;BME280;16902;50.816;12.828;2023-02-10T05:00:36;99496.84;;;-3.03;100.00
30081;BME280;16902;50.816;12.828;2023-02-10T05:05:38;99502.84;;;-3.06;100.00
30081;BME280;16902;50.816;12.828;2023-02-10T05:10:40;99505.47;;;-3.07;100.00
30081;BME280;16902;50.816;12.828;2023-02-10T05:15:42;99513.00;;;-3.04;100.00
30081;BME280;16902;50.816;12.828;2023-02-10T05:20:44;99520.53;;;-3.01;100.00
30081;BME280;16902;50.816;12.828;2023-02-10T05:25:46;99522.16;;;-2.99;100.00
30081;BME280;16902;50.816;12.828;2023-02-10T05:30:48;99514.38;;;-2.96;100.00
30081;BME280;16902;50.816;12.828;2023-02-10T05:35:50;99518.44;;;-2.90;100.00
30081;BME280;16902;50.816;12.828;2023-02-10T05:40:52;99529.59;;;-2.93;100.00
30081;BME280;16902;50.816;12.828;2023-02-10T05:45:55;99532.03;;;-2.90;100.00
30081;BME280;16902;50.816;12.828;2023-02-10T05:50:57;99532.75;;;-2.86;100.00
30081;BME280;16902;50.816;12.828;2023-02-10T05:55:58;99541.91;;;-2.80;100.00
30081;BME280;16902;50.816;12.828;2023-02-10T06:01:00;99545.09;;;-2.74;100.00
30081;BME280;16902;50.816;12.828;2023-02-10T06:06:02;99552.63;;;-2.71;100.00
30081;BME280;16902;50.816;12.828;2023-02-10T06:11:04;99554.97;;;-2.65;100.00
30081;BME280;16902;50.816;12.828;2023-02-10T06:16:06;99549.75;;;-2.62;100.00
30081;BME280;16902;50.816;12.828;2023-02-10T06:21:08;99565.91;;;-2.61;100.00
30081;BME280;16902;50.816;12.828;2023-02-10T06:26:10;99567.28;;;-2.52;100.00
30081;BME280;16902;50.816;12.828;2023-02-10T06:31:12;99565.31;;;-2.44;100.00
30081;BME280;16902;50.816;12.828;2023-02-10T06:36:14;99556.53;;;-2.37;100.00
30081;BME280;16902;50.816;12.828;2023-02-10T06:41:16;99561.47;;;-2.33;100.00
30081;BME280;16902;50.816;12.828;2023-02-10T06:46:18;99563.00;;;-2.27;100.00
30081;BME280;16902;50.816;12.828;2023-02-10T06:51:20;99566.16;;;-2.20;100.00
30081;BME280;16902;50.816;12.828;2023-02-10T06:56:21;99580.97;;;-2.07;100.00
30081;BME280;16902;50.816;12.828;2023-02-10T07:01:23;99582.47;;;-2.01;100.00
30081;BME280;16902;50.816;12.828;2023-02-10T07:06:25;99590.72;;;-1.94;100.00
30081;BME280;16902;50.816;12.828;2023-02-10T07:11:27;99600.91;;;-1.93;100.00
30081;BME280;16902;50.816;12.828;2023-02-10T07:16:29;99602.25;;;-1.84;100.00
30081;BME280;16902;50.816;12.828;2023-02-10T07:21:32;99610.38;;;-1.73;100.00
30081;BME280;16902;50.816;12.828;2023-02-10T07:26:34;99624.44;;;-1.63;100.00
30081;BME280;16902;50.816;12.828;2023-02-10T07:31:36;99622.56;;;-1.58;100.00
30081;BME280;16902;50.816;12.828;2023-02-10T07:36:39;99628.25;;;-1.51;100.00
30081;BME280;16902;50.816;12.828;2023-02-10T07:41:41;99639.09;;;-1.44;100.00
30081;BME280;16902;50.816;12.828;2023-02-10T07:46:43;99640.09;;;-1.26;100.00
30081;BME280;16902;50.816;12.828;2023-02-10T07:51:45;99641.19;;;-1.10;100.00
30081;BME280;16902;50.816;12.828;2023-02-10T07:56:47;99635.53;;;-0.96;100.00
30081;BME280;16902;50.816;12.828;2023-02-10T08:01:49;99626.22;;;-0.77;100.00
30081;BME280;16902;50.816;12.828;2023-02-10T08:06:51;99638.81;;;-0.72;100.00
30081;BME280;16902;50.816;12.828;2023-02-10T08:11:54;99634.28;;;-0.66;100.00
30081;BME280;16902;50.816;12.828;2023-02-10T08:16:57;99636.56;;;-0.80;100.00
30081;BME280;16902;50.816;12.828;2023-02-10T08:21:58;99642.25;;;-0.73;100.00
30081;BME280;16902;50.816;12.828;2023-02-10T08:27:00;99643.88;;;-0.71;100.00
30081;BME280;16902;50.816;12.828;2023-02-10T08:32:02;99632.94;;;-0.54;100.00
30081;BME280;16902;50.816;12.828;2023-02-10T08:37:04;99637.66;;;-0.45;100.00
30081;BME280;16902;50.816;12.828;2023-02-10T08:42:06;99639.09;;;-0.38;100.00
30081;BME280;16902;50.816;12.828;2023-02-10T08:47:08;99644.06;;;-0.14;100.00
30081;BME280;16902;50.816;12.828;2023-02-10T08:52:12;99642.09;;;0.11;100.00
30081;BME280;16902;50.816;12.828;2023-02-10T08:57:14;99656.28;;;0.37;100.00
30081;BME280;16902;50.816;12.828;2023-02-10T09:02:16;99657.91;;;0.40;100.00
30081;BME280;16902;50.816;12.828;2023-02-10T09:07:18;99670.50;;;0.44;100.00
30081;BME280;16902;50.816;12.828;2023-02-10T09:12:20;99679.84;;;0.45;100.00
30081;BME280;16902;50.816;12.828;2023-02-10T09:17:22;99681.66;;;0.24;100.00
30081;BME280;16902;50.816;12.828;2023-02-10T09:22:24;99684.78;;;0.50;100.00
30081;BME280;16902;50.816;12.828;2023-02-10T09:27:26;99687.88;;;0.38;100.00
30081;BME280;16902;50.816;12.828;2023-02-10T09:32:27;99674.78;;;0.63;100.00
30081;BME280;16902;50.816;12.828;2023-02-10T09:37:30;99678.41;;;1.14;100.00
30081;BME280;16902;50.816;12.828;2023-02-10T09:53:36;99677.13;;;1.22;100.00
30081;BME280;16902;50.816;12.828;2023-02-10T09:58:49;99683.09;;;1.23;100.00
30081;BME280;16902;50.816;12.828;2023-02-10T10:04:02;99694.66;;;1.32;100.00
30081;BME280;16902;50.816;12.828;2023-02-10T10:14:36;99699.13;;;1.09;100.00
30081;BME280;16902;50.816;12.828;2023-02-10T10:25:28;99706.78;;;0.92;100.00
30081;BME280;16902;50.816;12.828;2023-02-10T10:35:48;99688.69;;;1.48;100.00
30081;BME280;16902;50.816;12.828;2023-02-10T10:40:54;99684.38;;;1.84;100.00
30081;BME280;16902;50.816;12.828;2023-02-10T10:46:06;99679.31;;;1.82;100.00
30081;BME280;16902;50.816;12.828;2023-02-10T10:51:12;99684.94;;;2.23;100.00
30081;BME280;16902;50.816;12.828;2023-02-10T10:56:40;99670.91;;;2.29;100.00
30081;BME280;16902;50.816;12.828;2023-02-10T11:01:47;99665.94;;;2.26;100.00
30081;BME280;16902;50.816;12.828;2023-02-10T11:06:52;99657.09;;;2.79;100.00
30081;BME280;16902;50.816;12.828;2023-02-10T11:12:05;99654.38;;;3.72;100.00
30081;BME280;16902;50.816;12.828;2023-02-10T11:22:26;99661.59;;;3.51;100.00
30081;BME280;16902;50.816;12.828;2023-02-10T11:27:28;99650.50;;;3.65;100.00
30081;BME280;16902;50.816;12.828;2023-02-10T11:32:33;99647.72;;;3.24;100.00
30081;BME280;16902;50.816;12.828;2023-02-10T11:37:38;99668.31;;;3.40;100.00
30081;BME280;16902;50.816;12.828;2023-02-10T11:42:40;99660.56;;;2.94;100.00
30081;BME280;16902;50.816;12.828;2023-02-10T11:47:42;99651.94;;;2.79;100.00
30081;BME280;16902;50.816;12.828;2023-02-10T11:52:44;99658.88;;;3.08;100.00
30081;BME280;16902;50.816;12.828;2023-02-10T11:57:59;99646.34;;;3.63;100.00
30081;BME280;16902;50.816;12.828;2023-02-10T12:03:33;99648.53;;;3.40;100.00
30081;BME280;16902;50.816;12.828;2023-02-10T12:19:52;99653.88;;;4.10;100.00
30081;BME280;16902;50.816;12.828;2023-02-10T12:25:04;99667.63;;;4.66;100.00
30081;BME280;16902;50.816;12.828;2023-02-10T12:51:17;99633.63;;;9.07;100.00
30081;BME280;16902;50.816;12.828;2023-02-10T13:01:33;99620.28;;;10.04;100.00
30081;BME280;16902;50.816;12.828;2023-02-10T13:06:39;99617.03;;;10.43;100.00
30081;BME280;16902;50.816;12.828;2023-02-10T13:11:51;99612.94;;;11.86;100.00
30081;BME280;16902;50.816;12.828;2023-02-10T13:16:57;99609.59;;;10.98;100.00
30081;BME280;16902;50.816;12.828;2023-02-10T13:22:12;99614.25;;;9.32;100.00
30081;BME280;16902;50.816;12.828;2023-02-10T13:32:59;99605.16;;;8.73;100.00
30081;BME280;16902;50.816;12.828;2023-02-10T13:38:09;99617.31;;;7.25;100.00
30081;BME280;16902;50.816;12.828;2023-02-10T13:48:33;99607.56;;;8.20;100.00
30081;BME280;16902;50.816;12.828;2023-02-10T14:03:55;99604.50;;;5.64;100.00
30081;BME280;16902;50.816;12.828;2023-02-10T14:09:03;99603.22;;;5.31;100.00
30081;BME280;16902;50.816;12.828;2023-02-10T14:14:32;99600.53;;;4.39;100.00
30081;BME280;16902;50.816;12.828;2023-02-10T14:19:43;99590.34;;;4.23;100.00
30081;BME280;16902;50.816;12.828;2023-02-10T14:24:46;99586.22;;;4.21;100.00
30081;BME280;16902;50.816;12.828;2023-02-10T14:29:56;99589.34;;;4.11;100.00
30081;BME280;16902;50.816;12.828;2023-02-10T14:35:20;99597.72;;;4.01;100.00
30081;BME280;16902;50.816;12.828;2023-02-10T14:40:31;99594.94;;;4.18;100.00
30081;BME280;16902;50.816;12.828;2023-02-10T14:45:33;99581.22;;;4.32;100.00
30081;BME280;16902;50.816;12.828;2023-02-10T14:50:40;99591.53;;;4.32;100.00
30081;BME280;16902;50.816;12.828;2023-02-10T14:55:44;99583.97;;;4.29;100.00
30081;BME280;16902;50.816;12.828;2023-02-10T15:01:12;99578.59;;;3.91;100.00
30081;BME280;16902;50.816;12.828;2023-02-10T15:06:18;99580.81;;;3.68;100.00
30081;BME280;16902;50.816;12.828;2023-02-10T15:11:24;99572.44;;;3.65;100.00
30081;BME280;16902;50.816;12.828;2023-02-10T15:16:46;99563.88;;;3.50;100.00
30081;BME280;16902;50.816;12.828;2023-02-10T15:21:48;99562.00;;;3.38;100.00
30081;BME280;16902;50.816;12.828;2023-02-10T15:26:52;99553.41;;;3.23;100.00
30081;BME280;16902;50.816;12.828;2023-02-10T15:31:58;99549.31;;;3.04;100.00
30081;BME280;16902;50.816;12.828;2023-02-10T15:37:05;99549.06;;;2.79;100.00
30081;BME280;16902;50.816;12.828;2023-02-10T15:42:35;99543.50;;;2.25;100.00
30081;BME280;16902;50.816;12.828;2023-02-10T15:47:44;99541.66;;;1.79;100.00
30081;BME280;16902;50.816;12.828;2023-02-10T15:52:47;99538.97;;;1.32;100.00
30081;BME280;16902;50.816;12.828;2023-02-10T15:57:50;99545.59;;;1.01;100.00
30081;BME280;16902;50.816;12.828;2023-02-10T16:02:52;99539.50;;;0.69;100.00
30081;BME280;16902;50.816;12.828;2023-02-10T16:07:59;99549.00;;;0.31;100.00
30081;BME280;16902;50.816;12.828;2023-02-10T16:13:05;99542.06;;;0.14;100.00
30081;BME280;16902;50.816;12.828;2023-02-10T16:18:11;99540.00;;;0.04;100.00
30081;BME280;16902;50.816;12.828;2023-02-10T16:23:17;99544.16;;;-0.13;100.00
30081;BME280;16902;50.816;12.828;2023-02-10T16:28:20;99553.91;;;-0.21;100.00
30081;BME280;16902;50.816;12.828;2023-02-10T16:33:22;99560.44;;;-0.53;100.00
30081;BME280;16902;50.816;12.828;2023-02-10T16:38:24;99558.34;;;-0.45;100.00
30081;BME280;16902;50.816;12.828;2023-02-10T16:43:26;99531.19;;;-0.68;100.00
30081;BME280;16902;50.816;12.828;2023-02-10T16:48:28;99534.41;;;-1.04;100.00
30081;BME280;16902;50.816;12.828;2023-02-10T16:53:29;99538.72;;;-1.26;100.00
30081;BME280;16902;50.816;12.828;2023-02-10T16:58:31;99546.66;;;-1.54;100.00
30081;BME280;16902;50.816;12.828;2023-02-10T17:03:33;99546.53;;;-1.73;100.00
30081;BME280;16902;50.816;12.828;2023-02-10T17:08:35;99547.22;;;-1.91;100.00
30081;BME280;16902;50.816;12.828;2023-02-10T17:13:37;99550.72;;;-1.94;100.00
30081;BME280;16902;50.816;12.828;2023-02-10T17:18:39;99543.94;;;-1.95;100.00
30081;BME280;16902;50.816;12.828;2023-02-10T17:23:41;99545.56;;;-1.92;100.00
30081;BME280;16902;50.816;12.828;2023-02-10T17:28:43;99541.91;;;-1.63;100.00
30081;BME280;16902;50.816;12.828;2023-02-10T17:33:45;99550.72;;;-0.86;100.00
30081;BME280;16902;50.816;12.828;2023-02-10T17:38:52;99555.59;;;-0.40;100.00
30081;BME280;16902;50.816;12.828;2023-02-10T17:43:58;99556.56;;;-0.04;100.00
30081;BME280;16902;50.816;12.828;2023-02-10T17:49:00;99555.56;;;0.18;100.00
30081;BME280;16902;50.816;12.828;2023-02-10T17:54:02;99558.63;;;0.26;100.00
30081;BME280;16902;50.816;12.828;2023-02-10T17:59:06;99567.13;;;0.27;100.00
30081;BME280;16902;50.816;12.828;2023-02-10T18:04:08;99567.03;;;0.28;100.00
30081;BME280;16902;50.816;12.828;2023-02-10T18:09:10;99569.47;;;0.31;100.00
30081;BME280;16902;50.816;12.828;2023-02-10T18:14:12;99561.78;;;0.31;100.00
30081;BME280;16902;50.816;12.828;2023-02-10T18:19:14;99547.13;;;0.35;100.00
30081;BME280;16902;50.816;12.828;2023-02-10T18:24:16;99554.50;;;0.41;100.00
30081;BME280;16902;50.816;12.828;2023-02-10T18:29:18;99573.34;;;0.40;100.00
30081;BME280;16902;50.816;12.828;2023-02-10T18:34:20;99563.38;;;0.34;100.00
30081;BME280;16902;50.816;12.828;2023-02-10T18:39:22;99566.59;;;0.20;100.00
30081;BME280;16902;50.816;12.828;2023-02-10T18:44:24;99566.22;;;0.09;100.00
30081;BME280;16902;50.816;12.828;2023-02-10T18:49:26;99564.16;;;-0.02;100.00
30081;BME280;16902;50.816;12.828;2023-02-10T18:54:27;99564.72;;;-0.14;100.00
30081;BME280;16902;50.816;12.828;2023-02-10T18:59:29;99557.38;;;-0.22;100.00
30081;BME280;16902;50.816;12.828;2023-02-10T19:04:31;99550.16;;;-0.33;100.00
30081;BME280;16902;50.816;12.828;2023-02-10T19:09:33;99552.97;;;-0.39;100.00
30081;BME280;16902;50.816;12.828;2023-02-10T19:14:40;99559.13;;;-0.43;100.00
30081;BME280;16902;50.816;12.828;2023-02-10T19:19:42;99552.75;;;-0.53;100.00
30081;BME280;16902;50.816;12.828;2023-02-10T19:24:44;99553.97;;;-0.62;100.00
30081;BME280;16902;50.816;12.828;2023-02-10T19:29:46;99552.00;;;-0.75;100.00
30081;BME280;16902;50.816;12.828;2023-02-10T19:34:47;99544.00;;;-0.88;100.00
30081;BME280;16902;50.816;12.828;2023-02-10T19:39:50;99528.72;;;-0.90;100.00
30081;BME280;16902;50.816;12.828;2023-02-10T19:44:52;99523.81;;;-0.94;100.00
30081;BME280;16902;50.816;12.828;2023-02-10T19:49:54;99522.97;;;-0.95;100.00
30081;BME280;16902;50.816;12.828;2023-02-10T19:54:57;99521.44;;;-0.99;100.00
30081;BME280;16902;50.816;12.828;2023-02-10T19:59:59;99522.44;;;-1.03;100.00
30081;BME280;16902;50.816;12.828;2023-02-10T20:05:01;99525.16;;;-1.06;100.00
30081;BME280;16902;50.816;12.828;2023-02-10T20:10:04;99525.19;;;-1.08;100.00
30081;BME280;16902;50.816;12.828;2023-02-10T20:15:06;99521.81;;;-1.08;100.00
30081;BME280;16902;50.816;12.828;2023-02-10T20:20:08;99514.06;;;-1.07;100.00
30081;BME280;16902;50.816;12.828;2023-02-10T20:25:10;99513.25;;;-1.07;100.00
30081;BME280;16902;50.816;12.828;2023-02-10T20:30:12;99503.84;;;-1.07;100.00
30081;BME280;16902;50.816;12.828;2023-02-10T20:35:14;99506.47;;;-1.08;100.00
30081;BME280;16902;50.816;12.828;2023-02-10T20:40:16;99501.44;;;-1.10;100.00
30081;BME280;16902;50.816;12.828;2023-02-10T20:45:18;99503.09;;;-1.09;100.00
30081;BME280;16902;50.816;12.828;2023-02-10T20:50:21;99497.69;;;-1.01;100.00
30081;BME280;16902;50.816;12.828;2023-02-10T20:55:23;99493.84;;;-0.91;100.00
30081;BME280;16902;50.816;12.828;2023-02-10T21:00:24;99504.81;;;-0.89;100.00
30081;BME280;16902;50.816;12.828;2023-02-10T21:05:26;99509.53;;;-0.80;100.00
30081;BME280;16902;50.816;12.828;2023-02-10T21:10:28;99517.66;;;-0.70;100.00
30081;BME280;16902;50.816;12.828;2023-02-10T21:15:30;99520.03;;;-0.65;100.00
30081;BME280;16902;50.816;12.828;2023-02-10T21:20:32;99515.44;;;-0.59;100.00
30081;BME280;16902;50.816;12.828;2023-02-10T21:25:35;99516.28;;;-0.58;100.00
30081;BME280;16902;50.816;12.828;2023-02-10T21:30:43;99509.31;;;-0.55;100.00
30081;BME280;16902;50.816;12.828;2023-02-10T21:35:48;99510.91;;;-0.52;100.00
30081;BME280;16902;50.816;12.828;2023-02-10T21:41:00;99508.41;;;-0.54;100.00
30081;BME280;16902;50.816;12.828;2023-02-10T21:46:03;99510.22;;;-0.56;100.00
30081;BME280;16902;50.816;12.828;2023-02-10T21:51:05;99498.69;;;-0.45;100.00
30081;BME280;16902;50.816;12.828;2023-02-10T21:56:07;99492.81;;;-0.47;100.00
30081;BME280;16902;50.816;12.828;2023-02-10T22:01:10;99497.16;;;-0.49;100.00
30081;BME280;16902;50.816;12.828;2023-02-10T22:06:12;99483.41;;;-0.47;100.00
30081;BME280;16902;50.816;12.828;2023-02-10T22:11:15;99483.25;;;-0.44;100.00
30081;BME280;16902;50.816;12.828;2023-02-10T22:16:17;99481.81;;;-0.31;100.00
30081;BME280;16902;50.816;12.828;2023-02-10T22:21:22;99476.28;;;-0.21;100.00
30081;BME280;16902;50.816;12.828;2023-02-10T22:26:26;99464.09;;;-0.16;100.00
30081;BME280;16902;50.816;12.828;2023-02-10T22:31:30;99463.81;;;-0.10;100.00
30081;BME280;16902;50.816;12.828;2023-02-10T22:36:33;99458.78;;;-0.12;100.00
30081;BME280;16902;50.816;12.828;2023-02-10T22:41:35;99452.34;;;-0.20;100.00
30081;BME280;16902;50.816;12.828;2023-02-10T22:46:37;99450.97;;;-0.28;100.00
30081;BME280;16902;50.816;12.828;2023-02-10T22:51:40;99451.19;;;-0.32;100.00
30081;BME280;16902;50.816;12.828;2023-02-10T22:56:43;99444.53;;;-0.36;100.00
30081;BME280;16902;50.816;12.828;2023-02-10T23:01:45;99425.81;;;-0.37;100.00
30081;BME280;16902;50.816;12.828;2023-02-10T23:06:48;99424.81;;;-0.34;100.00
30081;BME280;16902;50.816;12.828;2023-02-10T23:11:50;99419.69;;;-0.34;100.00
30081;BME280;16902;50.816;12.828;2023-02-10T23:16:54;99419.66;;;-0.33;100.00
30081;BME280;16902;50.816;12.828;2023-02-10T23:21:56;99419.25;;;-0.23;100.00
30081;BME280;16902;50.816;12.828;2023-02-10T23:26:59;99417.63;;;-0.26;100.00
30081;BME280;16902;50.816;12.828;2023-02-10T23:32:01;99419.50;;;-0.30;100.00
30081;BME280;16902;50.816;12.828;2023-02-10T23:37:03;99416.19;;;-0.32;100.00
30081;BME280;16902;50.816;12.828;2023-02-10T23:42:05;99411.06;;;-0.32;100.00
30081;BME280;16902;50.816;12.828;2023-02-10T23:47:08;99394.13;;;-0.34;100.00
30081;BME280;16902;50.816;12.828;2023-02-10T23:52:10;99389.22;;;-0.39;100.00
30081;BME280;16902;50.816;12.828;2023-02-10T23:57:12;99383.56;;;-0.45;100.00
